WARM SPRINGS (USACE) (WRS)

Elevation: 440' · RUSSIAN R basin · Operator: US Army Corps of Engineers

Provisional data, subject to change.
Query executed Sunday at 23:38:04   clock

Select a sensor type for a plot of data.
Note: Reservoir Flows are daily averages.

Earlier

Date RES ELE    STORAGE    RES CHG    TOC STO    ABV TOC    OUTFLOW    INFLOW    PPT INC    TEMP MN    TEMP MX    EVP PAN   
 FEET   AF   AF   AF   AF   CFS   CFS   INCHES   DEG F   DEG F   INCHES  
03/01/2015 440.54 218330 -24 245000 -26670 77 71 0.00 3 22 0.08
03/02/2015 440.53 218306 -24 245000 -26694 77 70 0.00 3 18 0.06
03/03/2015 440.52 218281 -25 245000 -26719 78 71 0.00 3 21 0.08
03/04/2015 440.49 218208 -73 245000 -26792 77 46 0.00 1 23 0.08
03/05/2015 440.48 218184 -24 245000 -26816 78 71 0.00 3 23 0.08
03/06/2015 440.46 218135 -49 245000 -26865 77 59 0.00 3 28 0.09
03/07/2015 440.44 218086 -49 245000 -26914 76 57 0.00 5 26 0.09
03/08/2015 440.41 218013 -73 245000 -26987 77 45 0.00 3 25 0.08
03/09/2015 440.40 217988 -25 245000 -27012 78 71 0.00 7 24 0.08
03/10/2015 440.38 217940 -48 245000 -27060 80 60 0.00 4 20 0.07
03/11/2015 440.33 217818 -122 245000 -27182 81 24 0.00 9 18 0.06
03/12/2015 440.31 217769 -49 245000 -27231 80 61 0.00 8 27 0.10
03/13/2015 440.28 217696 -73 245000 -27304 81 51 0.00 9 26 0.10
03/14/2015 440.26 217647 -49 245000 -27353 80 62 0.00 12 27 0.10
03/15/2015 440.22 217550 -97 245000 -27450 80 37 0.00 10 22 0.08
03/16/2015 440.20 217501 -49 245000 -27499 80 60 0.00 12 21 0.07
03/17/2015 440.17 217428 -73 245000 -27572 80 50 0.00 6 24 0.10
03/18/2015 440.14 217355 -- 245000 -27645 80 51 0.00 9 28 0.12
03/19/2015 440.09 217233 -122 245000 -27767 81 27 0.00 8 31 0.12
03/20/2015 440.05 217136 -97 245000 -27864 81 38 0.00 5 24 0.09
03/21/2015 440.00 217015 -121 245000 -27985 84 30 0.00 7 24 0.11
03/22/2015 440.00 217015 0 245000 -27985 80 86 0.23 9 21 0.08
03/23/2015 439.97 216942 -73 245000 -28058 81 51 0.02 8 19 0.10
03/24/2015 439.93 216844 -98 245000 -28156 81 38 0.02 9 21 0.09
03/25/2015 439.90 216771 -73 245000 -28229 80 52 0.03 10 29 0.12
03/26/2015 439.86 216674 -97 245000 -28326 81 40 0.00 8 31 0.13
03/27/2015 439.81 216553 -121 245000 -28447 80 27 0.00 8 26 0.12
03/28/2015 -- -- -- -- -- -- -- -- -- -- --
03/29/2015 -- -- -- -- -- -- -- -- -- -- --

Later | Latest

Warning! This data is preliminary and subject to revision.

Show WRS Map | Plot WRS Data | 1 Month WRS Data | Real-Time WRS Data | WRS Info